sensor_id;sensor_type;location;lat;lon;timestamp;P1;durP1;ratioP1;P2;durP2;ratioP2
3918;SDS011;1974;48.670;8.994;2023-06-22T00:00:00;9.23;;;4.60;;
3918;SDS011;1974;48.670;8.994;2023-06-22T00:02:33;5.30;;;3.93;;
3918;SDS011;1974;48.670;8.994;2023-06-22T00:05:00;5.87;;;3.50;;
3918;SDS011;1974;48.670;8.994;2023-06-22T00:07:26;6.33;;;3.60;;
3918;SDS011;1974;48.670;8.994;2023-06-22T00:09:53;8.57;;;3.77;;
3918;SDS011;1974;48.670;8.994;2023-06-22T00:12:21;4.77;;;3.47;;
3918;SDS011;1974;48.670;8.994;2023-06-22T00:14:48;4.70;;;4.20;;
3918;SDS011;1974;48.670;8.994;2023-06-22T00:17:15;7.00;;;4.00;;
3918;SDS011;1974;48.670;8.994;2023-06-22T00:19:41;15.43;;;4.17;;
3918;SDS011;1974;48.670;8.994;2023-06-22T00:22:08;8.00;;;3.37;;
3918;SDS011;1974;48.670;8.994;2023-06-22T00:24:35;17.13;;;4.60;;
3918;SDS011;1974;48.670;8.994;2023-06-22T00:27:02;6.33;;;3.37;;
3918;SDS011;1974;48.670;8.994;2023-06-22T00:29:31;11.20;;;3.47;;
3918;SDS011;1974;48.670;8.994;2023-06-22T00:31:58;6.50;;;3.90;;
3918;SDS011;1974;48.670;8.994;2023-06-22T00:34:25;8.10;;;3.90;;
3918;SDS011;1974;48.670;8.994;2023-06-22T00:36:51;4.60;;;3.30;;
3918;SDS011;1974;48.670;8.994;2023-06-22T00:39:18;3.63;;;3.33;;
3918;SDS011;1974;48.670;8.994;2023-06-22T00:41:45;5.00;;;3.30;;
3918;SDS011;1974;48.670;8.994;2023-06-22T00:44:11;4.53;;;3.20;;
3918;SDS011;1974;48.670;8.994;2023-06-22T00:46:39;7.50;;;4.07;;
3918;SDS011;1974;48.670;8.994;2023-06-22T00:49:06;8.27;;;3.50;;
3918;SDS011;1974;48.670;8.994;2023-06-22T00:51:33;5.33;;;3.30;;
3918;SDS011;1974;48.670;8.994;2023-06-22T00:54:03;4.27;;;3.13;;
3918;SDS011;1974;48.670;8.994;2023-06-22T00:56:31;4.90;;;3.90;;
3918;SDS011;1974;48.670;8.994;2023-06-22T00:59:01;6.13;;;3.50;;
3918;SDS011;1974;48.670;8.994;2023-06-22T01:01:28;4.83;;;3.73;;
3918;SDS011;1974;48.670;8.994;2023-06-22T01:03:56;3.40;;;3.10;;
3918;SDS011;1974;48.670;8.994;2023-06-22T01:06:26;6.03;;;3.60;;
3918;SDS011;1974;48.670;8.994;2023-06-22T01:09:06;5.03;;;3.30;;
3918;SDS011;1974;48.670;8.994;2023-06-22T01:11:41;5.30;;;2.90;;
3918;SDS011;1974;48.670;8.994;2023-06-22T01:14:12;6.10;;;4.00;;
3918;SDS011;1974;48.670;8.994;2023-06-22T01:16:45;3.53;;;3.00;;
3918;SDS011;1974;48.670;8.994;2023-06-22T01:19:20;4.20;;;3.40;;
3918;SDS011;1974;48.670;8.994;2023-06-22T01:22:00;5.03;;;3.70;;
3918;SDS011;1974;48.670;8.994;2023-06-22T01:24:30;7.30;;;3.90;;
3918;SDS011;1974;48.670;8.994;2023-06-22T01:27:09;4.37;;;3.63;;
3918;SDS011;1974;48.670;8.994;2023-06-22T01:29:41;8.60;;;4.73;;
3918;SDS011;1974;48.670;8.994;2023-06-22T01:32:09;6.37;;;4.03;;
3918;SDS011;1974;48.670;8.994;2023-06-22T01:34:37;4.53;;;3.97;;
3918;SDS011;1974;48.670;8.994;2023-06-22T01:37:05;3.93;;;2.70;;
3918;SDS011;1974;48.670;8.994;2023-06-22T01:39:33;5.03;;;3.77;;
3918;SDS011;1974;48.670;8.994;2023-06-22T01:42:00;3.87;;;3.43;;
3918;SDS011;1974;48.670;8.994;2023-06-22T01:44:30;5.00;;;3.57;;
3918;SDS011;1974;48.670;8.994;2023-06-22T01:46:59;6.80;;;3.77;;
3918;SDS011;1974;48.670;8.994;2023-06-22T01:49:26;5.47;;;3.90;;
3918;SDS011;1974;48.670;8.994;2023-06-22T01:51:53;5.97;;;3.30;;
3918;SDS011;1974;48.670;8.994;2023-06-22T01:54:20;5.87;;;3.67;;
3918;SDS011;1974;48.670;8.994;2023-06-22T01:56:47;4.37;;;3.60;;
3918;SDS011;1974;48.670;8.994;2023-06-22T01:59:14;4.20;;;3.60;;
3918;SDS011;1974;48.670;8.994;2023-06-22T02:01:52;6.27;;;4.07;;
3918;SDS011;1974;48.670;8.994;2023-06-22T02:04:25;8.40;;;4.17;;
3918;SDS011;1974;48.670;8.994;2023-06-22T02:06:54;7.10;;;3.63;;
3918;SDS011;1974;48.670;8.994;2023-06-22T02:09:24;5.50;;;3.30;;
3918;SDS011;1974;48.670;8.994;2023-06-22T02:11:54;4.00;;;3.13;;
3918;SDS011;1974;48.670;8.994;2023-06-22T02:14:23;5.70;;;3.47;;
3918;SDS011;1974;48.670;8.994;2023-06-22T02:16:51;4.90;;;3.40;;
3918;SDS011;1974;48.670;8.994;2023-06-22T02:19:22;3.03;;;2.50;;
3918;SDS011;1974;48.670;8.994;2023-06-22T02:21:51;4.13;;;2.80;;
3918;SDS011;1974;48.670;8.994;2023-06-22T02:24:18;7.40;;;3.23;;
3918;SDS011;1974;48.670;8.994;2023-06-22T02:26:44;4.40;;;3.00;;
3918;SDS011;1974;48.670;8.994;2023-06-22T02:29:11;5.50;;;2.90;;
3918;SDS011;1974;48.670;8.994;2023-06-22T02:31:38;4.33;;;3.20;;
3918;SDS011;1974;48.670;8.994;2023-06-22T02:34:05;4.00;;;3.03;;
3918;SDS011;1974;48.670;8.994;2023-06-22T02:36:32;3.30;;;2.83;;
3918;SDS011;1974;48.670;8.994;2023-06-22T02:39:00;3.17;;;2.90;;
3918;SDS011;1974;48.670;8.994;2023-06-22T02:41:28;4.00;;;3.47;;
3918;SDS011;1974;48.670;8.994;2023-06-22T02:43:55;9.20;;;4.70;;
3918;SDS011;1974;48.670;8.994;2023-06-22T02:46:22;6.13;;;3.40;;
3918;SDS011;1974;48.670;8.994;2023-06-22T02:48:49;5.80;;;3.13;;
3918;SDS011;1974;48.670;8.994;2023-06-22T02:51:15;6.43;;;3.30;;
3918;SDS011;1974;48.670;8.994;2023-06-22T02:53:42;4.17;;;2.63;;
3918;SDS011;1974;48.670;8.994;2023-06-22T02:56:11;4.53;;;2.97;;
3918;SDS011;1974;48.670;8.994;2023-06-22T02:58:37;5.00;;;2.93;;
3918;SDS011;1974;48.670;8.994;2023-06-22T03:01:04;8.80;;;3.93;;
3918;SDS011;1974;48.670;8.994;2023-06-22T03:03:31;5.30;;;3.20;;
3918;SDS011;1974;48.670;8.994;2023-06-22T03:05:58;4.20;;;2.87;;
3918;SDS011;1974;48.670;8.994;2023-06-22T03:08:25;3.77;;;2.20;;
3918;SDS011;1974;48.670;8.994;2023-06-22T03:10:52;7.60;;;4.33;;
3918;SDS011;1974;48.670;8.994;2023-06-22T03:13:21;5.40;;;3.63;;
3918;SDS011;1974;48.670;8.994;2023-06-22T03:15:47;3.43;;;3.03;;
3918;SDS011;1974;48.670;8.994;2023-06-22T03:18:14;3.13;;;2.83;;
3918;SDS011;1974;48.670;8.994;2023-06-22T03:20:41;4.33;;;2.07;;
3918;SDS011;1974;48.670;8.994;2023-06-22T03:23:08;5.70;;;3.67;;
3918;SDS011;1974;48.670;8.994;2023-06-22T03:25:35;4.90;;;2.80;;
3918;SDS011;1974;48.670;8.994;2023-06-22T03:28:02;3.63;;;2.43;;
3918;SDS011;1974;48.670;8.994;2023-06-22T03:30:30;3.50;;;2.63;;
3918;SDS011;1974;48.670;8.994;2023-06-22T03:32:56;5.33;;;3.10;;
3918;SDS011;1974;48.670;8.994;2023-06-22T03:35:23;5.20;;;3.50;;
3918;SDS011;1974;48.670;8.994;2023-06-22T03:37:50;5.83;;;3.27;;
3918;SDS011;1974;48.670;8.994;2023-06-22T03:40:17;4.40;;;3.17;;
3918;SDS011;1974;48.670;8.994;2023-06-22T03:42:43;5.27;;;3.03;;
3918;SDS011;1974;48.670;8.994;2023-06-22T03:45:10;4.60;;;2.83;;
3918;SDS011;1974;48.670;8.994;2023-06-22T03:47:38;9.77;;;4.20;;
3918;SDS011;1974;48.670;8.994;2023-06-22T03:50:05;7.27;;;3.43;;
3918;SDS011;1974;48.670;8.994;2023-06-22T03:52:32;4.43;;;3.20;;
3918;SDS011;1974;48.670;8.994;2023-06-22T03:54:59;4.97;;;3.47;;
3918;SDS011;1974;48.670;8.994;2023-06-22T03:57:26;7.63;;;3.37;;
3918;SDS011;1974;48.670;8.994;2023-06-22T03:59:53;3.40;;;3.10;;
3918;SDS011;1974;48.670;8.994;2023-06-22T04:02:22;4.40;;;3.10;;
3918;SDS011;1974;48.670;8.994;2023-06-22T04:04:50;7.30;;;3.80;;
3918;SDS011;1974;48.670;8.994;2023-06-22T04:07:17;5.07;;;3.33;;
3918;SDS011;1974;48.670;8.994;2023-06-22T04:09:44;4.03;;;2.93;;
3918;SDS011;1974;48.670;8.994;2023-06-22T04:12:11;6.73;;;4.43;;
3918;SDS011;1974;48.670;8.994;2023-06-22T04:14:37;5.17;;;3.63;;
3918;SDS011;1974;48.670;8.994;2023-06-22T04:17:04;10.10;;;4.10;;
3918;SDS011;1974;48.670;8.994;2023-06-22T04:19:31;6.70;;;4.47;;
3918;SDS011;1974;48.670;8.994;2023-06-22T04:21:59;9.33;;;3.60;;
3918;SDS011;1974;48.670;8.994;2023-06-22T04:24:26;5.90;;;3.60;;
3918;SDS011;1974;48.670;8.994;2023-06-22T04:26:52;5.73;;;4.10;;
3918;SDS011;1974;48.670;8.994;2023-06-22T04:29:19;5.13;;;2.93;;
3918;SDS011;1974;48.670;8.994;2023-06-22T04:31:53;3.77;;;3.40;;
3918;SDS011;1974;48.670;8.994;2023-06-22T04:34:22;5.10;;;3.47;;
3918;SDS011;1974;48.670;8.994;2023-06-22T04:36:51;4.17;;;2.80;;
3918;SDS011;1974;48.670;8.994;2023-06-22T04:39:19;4.63;;;3.17;;
3918;SDS011;1974;48.670;8.994;2023-06-22T04:41:47;7.57;;;3.87;;
3918;SDS011;1974;48.670;8.994;2023-06-22T04:44:14;9.53;;;3.07;;
3918;SDS011;1974;48.670;8.994;2023-06-22T04:46:48;3.83;;;3.53;;
3918;SDS011;1974;48.670;8.994;2023-06-22T04:49:19;4.97;;;3.27;;
3918;SDS011;1974;48.670;8.994;2023-06-22T04:51:47;6.77;;;4.20;;
3918;SDS011;1974;48.670;8.994;2023-06-22T04:54:14;4.93;;;3.33;;
3918;SDS011;1974;48.670;8.994;2023-06-22T04:56:43;6.97;;;2.67;;
3918;SDS011;1974;48.670;8.994;2023-06-22T04:59:11;5.30;;;3.20;;
3918;SDS011;1974;48.670;8.994;2023-06-22T05:01:39;6.30;;;3.10;;
3918;SDS011;1974;48.670;8.994;2023-06-22T05:04:05;6.07;;;3.57;;
3918;SDS011;1974;48.670;8.994;2023-06-22T05:06:32;4.50;;;3.63;;
3918;SDS011;1974;48.670;8.994;2023-06-22T05:08:59;2.57;;;2.30;;
3918;SDS011;1974;48.670;8.994;2023-06-22T05:11:26;7.10;;;3.80;;
3918;SDS011;1974;48.670;8.994;2023-06-22T05:13:55;5.10;;;3.07;;
3918;SDS011;1974;48.670;8.994;2023-06-22T05:16:22;3.53;;;3.23;;
3918;SDS011;1974;48.670;8.994;2023-06-22T05:18:51;3.70;;;2.40;;
3918;SDS011;1974;48.670;8.994;2023-06-22T05:21:18;4.17;;;2.30;;
3918;SDS011;1974;48.670;8.994;2023-06-22T05:23:47;6.20;;;3.10;;
3918;SDS011;1974;48.670;8.994;2023-06-22T05:26:14;3.67;;;2.50;;
3918;SDS011;1974;48.670;8.994;2023-06-22T05:28:40;3.80;;;3.20;;
3918;SDS011;1974;48.670;8.994;2023-06-22T05:31:12;4.00;;;2.80;;
3918;SDS011;1974;48.670;8.994;2023-06-22T05:33:39;4.33;;;2.73;;
3918;SDS011;1974;48.670;8.994;2023-06-22T05:36:06;3.50;;;2.63;;
3918;SDS011;1974;48.670;8.994;2023-06-22T05:38:33;5.23;;;2.73;;
3918;SDS011;1974;48.670;8.994;2023-06-22T05:41:00;5.93;;;2.70;;
3918;SDS011;1974;48.670;8.994;2023-06-22T05:43:27;4.43;;;2.27;;
3918;SDS011;1974;48.670;8.994;2023-06-22T05:45:54;4.87;;;2.50;;
3918;SDS011;1974;48.670;8.994;2023-06-22T05:48:22;3.93;;;2.90;;
3918;SDS011;1974;48.670;8.994;2023-06-22T05:50:49;4.70;;;2.80;;
3918;SDS011;1974;48.670;8.994;2023-06-22T05:53:16;2.60;;;1.87;;
3918;SDS011;1974;48.670;8.994;2023-06-22T05:55:43;3.20;;;2.07;;
3918;SDS011;1974;48.670;8.994;2023-06-22T05:58:10;4.20;;;2.70;;
3918;SDS011;1974;48.670;8.994;2023-06-22T06:00:38;3.87;;;2.37;;
3918;SDS011;1974;48.670;8.994;2023-06-22T06:03:05;3.00;;;1.90;;
3918;SDS011;1974;48.670;8.994;2023-06-22T06:05:34;3.43;;;2.93;;
3918;SDS011;1974;48.670;8.994;2023-06-22T06:08:01;3.00;;;1.60;;
3918;SDS011;1974;48.670;8.994;2023-06-22T06:10:30;2.10;;;1.90;;
3918;SDS011;1974;48.670;8.994;2023-06-22T06:12:58;3.00;;;2.33;;
3918;SDS011;1974;48.670;8.994;2023-06-22T06:15:27;4.27;;;3.10;;
3918;SDS011;1974;48.670;8.994;2023-06-22T06:17:54;5.30;;;2.50;;
3918;SDS011;1974;48.670;8.994;2023-06-22T06:20:21;3.10;;;2.00;;
3918;SDS011;1974;48.670;8.994;2023-06-22T06:22:50;2.50;;;1.90;;
3918;SDS011;1974;48.670;8.994;2023-06-22T06:25:17;2.53;;;2.25;;
3918;SDS011;1974;48.670;8.994;2023-06-22T06:27:46;2.97;;;2.30;;
3918;SDS011;1974;48.670;8.994;2023-06-22T06:30:15;3.13;;;2.35;;
3918;SDS011;1974;48.670;8.994;2023-06-22T06:32:43;2.15;;;1.73;;
3918;SDS011;1974;48.670;8.994;2023-06-22T06:35:11;3.20;;;1.77;;
3918;SDS011;1974;48.670;8.994;2023-06-22T06:37:41;2.00;;;1.35;;
3918;SDS011;1974;48.670;8.994;2023-06-22T06:40:10;1.80;;;1.45;;
3918;SDS011;1974;48.670;8.994;2023-06-22T06:42:38;2.05;;;1.65;;
3918;SDS011;1974;48.670;8.994;2023-06-22T06:45:07;2.00;;;1.63;;
3918;SDS011;1974;48.670;8.994;2023-06-22T06:47:34;2.55;;;1.70;;
3918;SDS011;1974;48.670;8.994;2023-06-22T06:50:01;5.15;;;2.00;;
3918;SDS011;1974;48.670;8.994;2023-06-22T06:52:28;2.22;;;2.03;;
3918;SDS011;1974;48.670;8.994;2023-06-22T06:54:55;2.45;;;1.85;;
3918;SDS011;1974;48.670;8.994;2023-06-22T06:57:23;1.50;;;1.40;;
3918;SDS011;1974;48.670;8.994;2023-06-22T06:59:53;2.05;;;1.50;;
3918;SDS011;1974;48.670;8.994;2023-06-22T07:02:21;2.72;;;1.98;;
3918;SDS011;1974;48.670;8.994;2023-06-22T07:04:48;2.78;;;2.58;;
3918;SDS011;1974;48.670;8.994;2023-06-22T07:07:15;1.92;;;1.70;;
3918;SDS011;1974;48.670;8.994;2023-06-22T07:09:42;3.25;;;1.98;;
3918;SDS011;1974;48.670;8.994;2023-06-22T07:12:09;2.50;;;1.77;;
3918;SDS011;1974;48.670;8.994;2023-06-22T07:14:37;3.80;;;1.52;;
3918;SDS011;1974;48.670;8.994;2023-06-22T07:17:04;2.42;;;1.48;;
3918;SDS011;1974;48.670;8.994;2023-06-22T07:19:32;2.10;;;1.80;;
3918;SDS011;1974;48.670;8.994;2023-06-22T07:21:59;3.63;;;1.90;;
3918;SDS011;1974;48.670;8.994;2023-06-22T07:24:26;2.55;;;1.92;;
3918;SDS011;1974;48.670;8.994;2023-06-22T07:26:53;2.28;;;2.08;;
3918;SDS011;1974;48.670;8.994;2023-06-22T07:29:20;2.33;;;1.70;;
3918;SDS011;1974;48.670;8.994;2023-06-22T07:31:49;2.42;;;1.58;;
3918;SDS011;1974;48.670;8.994;2023-06-22T07:34:16;2.08;;;1.63;;
3918;SDS011;1974;48.670;8.994;2023-06-22T07:36:43;1.83;;;1.48;;
3918;SDS011;1974;48.670;8.994;2023-06-22T07:39:10;1.88;;;1.67;;
3918;SDS011;1974;48.670;8.994;2023-06-22T07:41:38;2.17;;;1.90;;
3918;SDS011;1974;48.670;8.994;2023-06-22T07:44:05;1.90;;;1.80;;
3918;SDS011;1974;48.670;8.994;2023-06-22T07:46:32;3.78;;;1.90;;
3918;SDS011;1974;48.670;8.994;2023-06-22T07:49:01;4.75;;;1.70;;
3918;SDS011;1974;48.670;8.994;2023-06-22T07:51:28;2.10;;;1.30;;
3918;SDS011;1974;48.670;8.994;2023-06-22T07:53:55;1.85;;;1.75;;
3918;SDS011;1974;48.670;8.994;2023-06-22T07:56:21;4.03;;;2.10;;
3918;SDS011;1974;48.670;8.994;2023-06-22T07:58:48;4.60;;;1.60;;
3918;SDS011;1974;48.670;8.994;2023-06-22T08:01:15;2.38;;;2.28;;
3918;SDS011;1974;48.670;8.994;2023-06-22T08:03:44;4.00;;;1.92;;
3918;SDS011;1974;48.670;8.994;2023-06-22T08:06:12;1.95;;;1.42;;
3918;SDS011;1974;48.670;8.994;2023-06-22T08:08:39;1.67;;;1.58;;
3918;SDS011;1974;48.670;8.994;2023-06-22T08:11:07;2.28;;;2.03;;
3918;SDS011;1974;48.670;8.994;2023-06-22T08:13:34;1.80;;;1.70;;
3918;SDS011;1974;48.670;8.994;2023-06-22T08:16:01;4.05;;;2.15;;
3918;SDS011;1974;48.670;8.994;2023-06-22T08:18:28;4.55;;;1.70;;
3918;SDS011;1974;48.670;8.994;2023-06-22T08:20:55;6.68;;;1.98;;
3918;SDS011;1974;48.670;8.994;2023-06-22T08:23:23;1.30;;;1.20;;
3918;SDS011;1974;48.670;8.994;2023-06-22T08:25:50;2.45;;;1.55;;
3918;SDS011;1974;48.670;8.994;2023-06-22T08:28:16;3.33;;;2.05;;
3918;SDS011;1974;48.670;8.994;2023-06-22T08:30:43;2.08;;;1.98;;
3918;SDS011;1974;48.670;8.994;2023-06-22T08:33:10;4.35;;;1.85;;
3918;SDS011;1974;48.670;8.994;2023-06-22T08:35:37;1.65;;;1.52;;
3918;SDS011;1974;48.670;8.994;2023-06-22T08:38:04;2.40;;;1.63;;
3918;SDS011;1974;48.670;8.994;2023-06-22T08:40:32;5.53;;;2.00;;
3918;SDS011;1974;48.670;8.994;2023-06-22T08:42:59;2.25;;;1.98;;
3918;SDS011;1974;48.670;8.994;2023-06-22T08:45:26;1.70;;;1.60;;
3918;SDS011;1974;48.670;8.994;2023-06-22T08:47:52;3.17;;;1.75;;
3918;SDS011;1974;48.670;8.994;2023-06-22T08:50:19;2.00;;;1.90;;
3918;SDS011;1974;48.670;8.994;2023-06-22T08:52:46;1.75;;;1.52;;
3918;SDS011;1974;48.670;8.994;2023-06-22T08:55:13;1.88;;;1.63;;
3918;SDS011;1974;48.670;8.994;2023-06-22T08:57:41;1.60;;;1.50;;
3918;SDS011;1974;48.670;8.994;2023-06-22T09:00:09;2.70;;;1.98;;
3918;SDS011;1974;48.670;8.994;2023-06-22T09:02:43;5.53;;;2.17;;
3918;SDS011;1974;48.670;8.994;2023-06-22T09:05:10;1.55;;;1.45;;
3918;SDS011;1974;48.670;8.994;2023-06-22T09:07:37;3.05;;;1.58;;
3918;SDS011;1974;48.670;8.994;2023-06-22T09:10:04;1.80;;;1.70;;
3918;SDS011;1974;48.670;8.994;2023-06-22T09:12:31;3.90;;;1.65;;
3918;SDS011;1974;48.670;8.994;2023-06-22T09:15:00;1.70;;;1.55;;
3918;SDS011;1974;48.670;8.994;2023-06-22T09:17:27;1.63;;;1.52;;
3918;SDS011;1974;48.670;8.994;2023-06-22T09:19:54;2.28;;;1.60;;
3918;SDS011;1974;48.670;8.994;2023-06-22T09:22:21;2.55;;;1.88;;
3918;SDS011;1974;48.670;8.994;2023-06-22T09:24:48;2.47;;;2.13;;
3918;SDS011;1974;48.670;8.994;2023-06-22T09:27:14;1.70;;;1.52;;
3918;SDS011;1974;48.670;8.994;2023-06-22T09:29:41;4.03;;;1.77;;
3918;SDS011;1974;48.670;8.994;2023-06-22T09:32:09;4.53;;;2.40;;
3918;SDS011;1974;48.670;8.994;2023-06-22T09:34:36;2.75;;;1.73;;
3918;SDS011;1974;48.670;8.994;2023-06-22T09:37:03;2.95;;;1.70;;
3918;SDS011;1974;48.670;8.994;2023-06-22T09:39:30;3.05;;;2.30;;
3918;SDS011;1974;48.670;8.994;2023-06-22T09:41:57;9.63;;;2.78;;
3918;SDS011;1974;48.670;8.994;2023-06-22T09:44:25;3.63;;;2.17;;
3918;SDS011;1974;48.670;8.994;2023-06-22T09:46:52;3.08;;;2.55;;
3918;SDS011;1974;48.670;8.994;2023-06-22T09:49:20;1.50;;;1.40;;
3918;SDS011;1974;48.670;8.994;2023-06-22T09:51:47;4.20;;;1.63;;
3918;SDS011;1974;48.670;8.994;2023-06-22T09:54:14;3.08;;;2.08;;
3918;SDS011;1974;48.670;8.994;2023-06-22T09:56:41;2.05;;;1.80;;
3918;SDS011;1974;48.670;8.994;2023-06-22T09:59:08;1.80;;;1.70;;
3918;SDS011;1974;48.670;8.994;2023-06-22T10:01:34;6.47;;;1.52;;
3918;SDS011;1974;48.670;8.994;2023-06-22T10:04:01;2.67;;;1.98;;
3918;SDS011;1974;48.670;8.994;2023-06-22T10:06:30;2.50;;;2.28;;
3918;SDS011;1974;48.670;8.994;2023-06-22T10:08:56;2.45;;;2.13;;
3918;SDS011;1974;48.670;8.994;2023-06-22T10:11:23;6.20;;;3.00;;
3918;SDS011;1974;48.670;8.994;2023-06-22T10:13:54;2.83;;;2.08;;
3918;SDS011;1974;48.670;8.994;2023-06-22T10:16:20;2.28;;;2.08;;
3918;SDS011;1974;48.670;8.994;2023-06-22T10:18:47;2.97;;;2.20;;
3918;SDS011;1974;48.670;8.994;2023-06-22T10:21:14;3.72;;;2.83;;
3918;SDS011;1974;48.670;8.994;2023-06-22T10:23:42;4.63;;;2.47;;
3918;SDS011;1974;48.670;8.994;2023-06-22T10:26:09;2.22;;;1.90;;
3918;SDS011;1974;48.670;8.994;2023-06-22T10:28:35;2.53;;;2.05;;
3918;SDS011;1974;48.670;8.994;2023-06-22T10:31:02;3.90;;;2.20;;
3918;SDS011;1974;48.670;8.994;2023-06-22T10:33:29;3.08;;;2.22;;
3918;SDS011;1974;48.670;8.994;2023-06-22T10:35:56;2.13;;;1.98;;
3918;SDS011;1974;48.670;8.994;2023-06-22T10:38:22;2.80;;;1.90;;
3918;SDS011;1974;48.670;8.994;2023-06-22T10:40:50;5.28;;;2.03;;
3918;SDS011;1974;48.670;8.994;2023-06-22T10:43:17;4.47;;;1.90;;
3918;SDS011;1974;48.670;8.994;2023-06-22T10:45:44;9.50;;;2.20;;
3918;SDS011;1974;48.670;8.994;2023-06-22T10:48:11;2.58;;;2.15;;
3918;SDS011;1974;48.670;8.994;2023-06-22T10:50:38;2.17;;;2.08;;
3918;SDS011;1974;48.670;8.994;2023-06-22T10:53:05;4.93;;;2.55;;
3918;SDS011;1974;48.670;8.994;2023-06-22T10:55:31;2.08;;;1.90;;
3918;SDS011;1974;48.670;8.994;2023-06-22T10:58:00;3.20;;;2.58;;
3918;SDS011;1974;48.670;8.994;2023-06-22T11:00:26;3.50;;;2.33;;
3918;SDS011;1974;48.670;8.994;2023-06-22T11:02:53;2.28;;;2.08;;
3918;SDS011;1974;48.670;8.994;2023-06-22T11:05:20;2.80;;;1.95;;
3918;SDS011;1974;48.670;8.994;2023-06-22T11:07:46;3.72;;;2.25;;
3918;SDS011;1974;48.670;8.994;2023-06-22T11:10:14;1.75;;;1.65;;
3918;SDS011;1974;48.670;8.994;2023-06-22T11:12:41;2.58;;;2.38;;
3918;SDS011;1974;48.670;8.994;2023-06-22T11:15:10;1.80;;;1.70;;
3918;SDS011;1974;48.670;8.994;2023-06-22T11:17:37;2.40;;;2.20;;
3918;SDS011;1974;48.670;8.994;2023-06-22T11:20:04;2.80;;;2.10;;
3918;SDS011;1974;48.670;8.994;2023-06-22T11:22:35;5.53;;;1.63;;
3918;SDS011;1974;48.670;8.994;2023-06-22T11:25:02;2.88;;;2.03;;
3918;SDS011;1974;48.670;8.994;2023-06-22T11:27:30;2.08;;;1.80;;
3918;SDS011;1974;48.670;8.994;2023-06-22T11:29:56;5.72;;;2.67;;
3918;SDS011;1974;48.670;8.994;2023-06-22T11:32:24;3.92;;;2.30;;
3918;SDS011;1974;48.670;8.994;2023-06-22T11:34:52;2.38;;;1.90;;
3918;SDS011;1974;48.670;8.994;2023-06-22T11:37:19;2.67;;;2.15;;
3918;SDS011;1974;48.670;8.994;2023-06-22T11:39:45;1.52;;;1.42;;
3918;SDS011;1974;48.670;8.994;2023-06-22T11:42:12;1.77;;;1.67;;
3918;SDS011;1974;48.670;8.994;2023-06-22T11:44:39;6.25;;;2.28;;
3918;SDS011;1974;48.670;8.994;2023-06-22T11:47:06;3.17;;;2.03;;
3918;SDS011;1974;48.670;8.994;2023-06-22T11:49:34;1.65;;;1.55;;
3918;SDS011;1974;48.670;8.994;2023-06-22T11:52:00;1.98;;;1.52;;
3918;SDS011;1974;48.670;8.994;2023-06-22T11:54:27;5.13;;;2.17;;
3918;SDS011;1974;48.670;8.994;2023-06-22T11:56:54;2.40;;;2.20;;
3918;SDS011;1974;48.670;8.994;2023-06-22T11:59:21;2.40;;;1.90;;
3918;SDS011;1974;48.670;8.994;2023-06-22T12:01:47;5.35;;;2.60;;
3918;SDS011;1974;48.670;8.994;2023-06-22T12:04:15;2.70;;;2.47;;
3918;SDS011;1974;48.670;8.994;2023-06-22T12:06:44;4.95;;;2.67;;
3918;SDS011;1974;48.670;8.994;2023-06-22T12:09:11;2.33;;;1.98;;
3918;SDS011;1974;48.670;8.994;2023-06-22T12:11:38;2.22;;;2.10;;
3918;SDS011;1974;48.670;8.994;2023-06-22T12:14:05;5.22;;;2.40;;
3918;SDS011;1974;48.670;8.994;2023-06-22T12:16:32;2.13;;;2.03;;
3918;SDS011;1974;48.670;8.994;2023-06-22T12:18:59;3.83;;;1.90;;
3918;SDS011;1974;48.670;8.994;2023-06-22T12:21:26;3.75;;;2.45;;
3918;SDS011;1974;48.670;8.994;2023-06-22T12:23:55;2.38;;;2.17;;
3918;SDS011;1974;48.670;8.994;2023-06-22T12:26:22;6.82;;;2.42;;
3918;SDS011;1974;48.670;8.994;2023-06-22T12:28:48;3.50;;;2.70;;
3918;SDS011;1974;48.670;8.994;2023-06-22T12:31:15;2.92;;;2.65;;
3918;SDS011;1974;48.670;8.994;2023-06-22T12:33:42;5.55;;;2.60;;
3918;SDS011;1974;48.670;8.994;2023-06-22T12:36:08;4.07;;;2.33;;
3918;SDS011;1974;48.670;8.994;2023-06-22T12:38:35;4.22;;;2.80;;
3918;SDS011;1974;48.670;8.994;2023-06-22T12:41:03;3.15;;;2.53;;
3918;SDS011;1974;48.670;8.994;2023-06-22T12:43:30;4.20;;;2.92;;
3918;SDS011;1974;48.670;8.994;2023-06-22T12:45:57;3.15;;;2.85;;
3918;SDS011;1974;48.670;8.994;2023-06-22T12:48:25;2.25;;;2.05;;
3918;SDS011;1974;48.670;8.994;2023-06-22T12:50:52;3.53;;;3.08;;
3918;SDS011;1974;48.670;8.994;2023-06-22T12:53:18;2.65;;;2.45;;
3918;SDS011;1974;48.670;8.994;2023-06-22T12:55:47;7.55;;;2.85;;
3918;SDS011;1974;48.670;8.994;2023-06-22T12:58:15;2.58;;;2.38;;
3918;SDS011;1974;48.670;8.994;2023-06-22T13:00:42;3.63;;;2.13;;
3918;SDS011;1974;48.670;8.994;2023-06-22T13:03:09;2.08;;;1.98;;
3918;SDS011;1974;48.670;8.994;2023-06-22T13:05:36;2.50;;;2.30;;
3918;SDS011;1974;48.670;8.994;2023-06-22T13:08:03;3.40;;;2.90;;
3918;SDS011;1974;48.670;8.994;2023-06-22T13:10:30;3.42;;;2.50;;
3918;SDS011;1974;48.670;8.994;2023-06-22T13:12:57;4.55;;;2.08;;
3918;SDS011;1974;48.670;8.994;2023-06-22T13:15:27;3.25;;;2.17;;
3918;SDS011;1974;48.670;8.994;2023-06-22T13:17:54;2.33;;;2.10;;
3918;SDS011;1974;48.670;8.994;2023-06-22T13:20:21;9.55;;;2.20;;
3918;SDS011;1974;48.670;8.994;2023-06-22T13:22:48;3.13;;;2.45;;
3918;SDS011;1974;48.670;8.994;2023-06-22T13:25:14;2.65;;;1.85;;
3918;SDS011;1974;48.670;8.994;2023-06-22T13:27:44;5.47;;;2.45;;
3918;SDS011;1974;48.670;8.994;2023-06-22T13:30:11;2.28;;;1.52;;
3918;SDS011;1974;48.670;8.994;2023-06-22T13:32:39;2.40;;;1.98;;
3918;SDS011;1974;48.670;8.994;2023-06-22T13:35:07;2.15;;;1.95;;
3918;SDS011;1974;48.670;8.994;2023-06-22T13:37:34;4.70;;;2.53;;
3918;SDS011;1974;48.670;8.994;2023-06-22T13:40:01;2.25;;;2.15;;
3918;SDS011;1974;48.670;8.994;2023-06-22T13:42:30;3.88;;;2.03;;
3918;SDS011;1974;48.670;8.994;2023-06-22T13:44:57;5.35;;;2.47;;
3918;SDS011;1974;48.670;8.994;2023-06-22T13:47:23;2.65;;;1.60;;
3918;SDS011;1974;48.670;8.994;2023-06-22T13:49:51;3.58;;;2.08;;
3918;SDS011;1974;48.670;8.994;2023-06-22T13:52:18;3.63;;;2.60;;
3918;SDS011;1974;48.670;8.994;2023-06-22T13:54:45;2.90;;;2.35;;
3918;SDS011;1974;48.670;8.994;2023-06-22T13:57:12;2.97;;;2.65;;
3918;SDS011;1974;48.670;8.994;2023-06-22T13:59:38;6.72;;;2.47;;
3918;SDS011;1974;48.670;8.994;2023-06-22T14:02:05;3.20;;;2.38;;
3918;SDS011;1974;48.670;8.994;2023-06-22T14:04:32;4.78;;;1.80;;
3918;SDS011;1974;48.670;8.994;2023-06-22T14:07:00;1.83;;;1.73;;
3918;SDS011;1974;48.670;8.994;2023-06-22T14:09:27;4.10;;;2.00;;
3918;SDS011;1974;48.670;8.994;2023-06-22T14:11:54;6.53;;;3.08;;
3918;SDS011;1974;48.670;8.994;2023-06-22T14:14:21;2.70;;;2.10;;
3918;SDS011;1974;48.670;8.994;2023-06-22T14:16:48;1.42;;;1.33;;
3918;SDS011;1974;48.670;8.994;2023-06-22T14:19:16;1.42;;;1.33;;
3918;SDS011;1974;48.670;8.994;2023-06-22T14:21:43;3.58;;;1.73;;
3918;SDS011;1974;48.670;8.994;2023-06-22T14:24:11;2.58;;;2.13;;
3918;SDS011;1974;48.670;8.994;2023-06-22T14:26:38;1.55;;;1.45;;
3918;SDS011;1974;48.670;8.994;2023-06-22T14:29:05;1.95;;;0.90;;
3918;SDS011;1974;48.670;8.994;2023-06-22T14:31:31;1.48;;;1.30;;
3918;SDS011;1974;48.670;8.994;2023-06-22T14:33:58;1.42;;;1.02;;
3918;SDS011;1974;48.670;8.994;2023-06-22T14:36:27;0.70;;;0.70;;
3918;SDS011;1974;48.670;8.994;2023-06-22T14:38:54;3.25;;;1.50;;
3918;SDS011;1974;48.670;8.994;2023-06-22T14:41:22;1.85;;;0.90;;
3918;SDS011;1974;48.670;8.994;2023-06-22T14:43:49;1.67;;;1.08;;
3918;SDS011;1974;48.670;8.994;2023-06-22T14:46:17;0.95;;;0.88;;
3918;SDS011;1974;48.670;8.994;2023-06-22T14:48:45;1.70;;;1.13;;
3918;SDS011;1974;48.670;8.994;2023-06-22T14:51:11;0.80;;;0.77;;
3918;SDS011;1974;48.670;8.994;2023-06-22T14:53:39;3.33;;;1.10;;
3918;SDS011;1974;48.670;8.994;2023-06-22T14:56:06;1.15;;;1.05;;
3918;SDS011;1974;48.670;8.994;2023-06-22T14:58:34;1.08;;;0.82;;
3918;SDS011;1974;48.670;8.994;2023-06-22T15:01:01;1.25;;;1.05;;
3918;SDS011;1974;48.670;8.994;2023-06-22T15:03:29;3.67;;;1.38;;
3918;SDS011;1974;48.670;8.994;2023-06-22T15:05:57;3.67;;;0.93;;
3918;SDS011;1974;48.670;8.994;2023-06-22T15:08:24;4.95;;;1.00;;
3918;SDS011;1974;48.670;8.994;2023-06-22T15:10:51;1.60;;;0.80;;
3918;SDS011;1974;48.670;8.994;2023-06-22T15:13:18;0.90;;;0.70;;
3918;SDS011;1974;48.670;8.994;2023-06-22T15:15:47;1.00;;;0.80;;